createdAt,value
2022-09-16T00:01:39.588Z,99924.53
2022-09-16T00:04:07.013Z,99923.84
2022-09-16T00:06:34.393Z,99926.19
2022-09-16T00:09:01.925Z,99924.53
2022-09-16T00:11:29.385Z,99925.53
2022-09-16T00:13:56.775Z,99930.69
2022-09-16T00:16:24.965Z,99926.53
2022-09-16T00:18:56.265Z,99925.69
2022-09-16T00:21:23.656Z,99926.53
2022-09-16T00:23:51.084Z,99931.22
2022-09-16T00:26:18.550Z,99935.75
2022-09-16T00:28:48.446Z,99937.59
2022-09-16T00:31:15.870Z,99932.03
2022-09-16T00:33:43.291Z,99930.22
2022-09-16T00:36:13.365Z,99927.72
2022-09-16T00:38:40.885Z,99926.69
2022-09-16T00:41:08.301Z,99937.38
2022-09-16T00:43:49.603Z,99930.41
2022-09-16T00:46:17.028Z,99925.69
2022-09-16T00:48:44.497Z,99932.25
2022-09-16T00:51:13.163Z,99938.25
2022-09-16T00:53:43.167Z,99937.59
2022-09-16T00:56:11.060Z,99936.56
2022-09-16T00:58:40.518Z,99937.59
2022-09-16T01:01:08.026Z,99937.38
2022-09-16T01:03:36.865Z,99933.88
2022-09-16T01:06:04.349Z,99937.38
2022-09-16T01:08:33.052Z,99936.22
2022-09-16T01:11:00.431Z,99941.75
2022-09-16T01:13:27.820Z,99948.28
2022-09-16T01:15:59.435Z,99941.91
2022-09-16T01:18:27.939Z,99944.75
2022-09-16T01:21:07.516Z,99943.09
2022-09-16T01:23:58.603Z,99944.59
2022-09-16T01:26:36.774Z,99943.59
2022-09-16T01:29:14.083Z,99943.75
2022-09-16T01:31:44.068Z,99941.09
2022-09-16T01:34:16.171Z,99950.94
2022-09-16T01:36:47.092Z,99945.41
2022-09-16T01:39:20.137Z,99946.09
2022-09-16T01:41:57.472Z,99947.56
2022-09-16T01:44:26.857Z,99951.44
2022-09-16T01:46:59.993Z,99943.25
2022-09-16T01:49:29.537Z,99938.91
2022-09-16T01:51:59.430Z,99938.91
2022-09-16T01:54:28.374Z,99938.91
2022-09-16T01:56:58.983Z,99938.91
2022-09-16T01:59:28.296Z,99935.41
2022-09-16T02:01:58.427Z,99932.56
2022-09-16T02:04:27.904Z,99934.19
2022-09-16T02:06:55.323Z,99933.38
2022-09-16T02:09:24.156Z,99934.38
2022-09-16T02:11:51.885Z,99938.91
2022-09-16T02:14:20.345Z,99939.72
2022-09-16T02:16:49.727Z,99941.41
2022-09-16T02:19:20.694Z,99939.72
2022-09-16T02:21:48.163Z,99935.22
2022-09-16T02:24:17.258Z,99934.53
2022-09-16T02:26:47.303Z,99938.91
2022-09-16T02:29:15.864Z,99926.53
2022-09-16T02:31:44.160Z,99929.38
2022-09-16T02:34:13.716Z,99935.56
2022-09-16T02:36:44.193Z,99939.22
2022-09-16T02:39:12.803Z,99942.56
2022-09-16T02:41:40.289Z,99939.06
2022-09-16T02:44:07.667Z,99931.03
2022-09-16T02:46:38.828Z,99936.41
2022-09-16T02:49:13.981Z,99937.22
2022-09-16T02:51:46.171Z,99931.88
2022-09-16T02:54:16.721Z,99933.53
2022-09-16T02:56:44.528Z,99933.19
2022-09-16T02:59:12.762Z,99933.38
2022-09-16T03:01:44.139Z,99932.34
2022-09-16T03:04:12.075Z,99935.88
2022-09-16T03:06:39.589Z,99935.88
2022-09-16T03:09:09.348Z,99934.03
2022-09-16T03:12:05.084Z,99929.03
2022-09-16T03:14:52.995Z,99937.22
2022-09-16T03:17:28.438Z,99945.41
2022-09-16T03:20:00.325Z,99940.25
2022-09-16T03:22:32.594Z,99942.56
2022-09-16T03:25:05.134Z,99932.91
2022-09-16T03:27:35.131Z,99939.22
2022-09-16T03:30:04.134Z,99937.59
2022-09-16T03:32:32.836Z,99939.22
2022-09-16T03:35:01.718Z,99938.59
2022-09-16T03:37:32.041Z,99936.91
2022-09-16T03:40:00.958Z,99933.41
2022-09-16T03:42:28.392Z,99938.28
2022-09-16T03:44:55.783Z,99932.94
2022-09-16T03:47:23.179Z,99925.91
2022-09-16T03:49:50.763Z,99935.59
2022-09-16T03:52:19.077Z,99933.91
2022-09-16T03:54:46.480Z,99931.25
2022-09-16T03:57:15.199Z,99922.56
2022-09-16T03:59:42.861Z,99936.59
2022-09-16T04:02:10.276Z,99939.63
2022-09-16T04:04:37.660Z,99925.91
2022-09-16T04:07:05.207Z,99929.59
2022-09-16T04:09:32.778Z,99921.94
2022-09-16T04:12:00.165Z,99927.25
2022-09-16T04:14:28.841Z,99926.75
2022-09-16T04:16:56.283Z,99929.59
2022-09-16T04:19:24.186Z,99928.56
2022-09-16T04:21:51.565Z,99932.09
2022-09-16T04:24:19.036Z,99925.38
2022-09-16T04:26:46.460Z,99916.88
2022-09-16T04:29:14.021Z,99925.56
2022-09-16T04:31:42.893Z,99920.56
2022-09-16T04:34:11.768Z,99922.56
2022-09-16T04:36:39.538Z,99919.09
2022-09-16T04:39:06.975Z,99924.59
2022-09-16T04:41:34.378Z,99916.75
2022-09-16T04:44:01.873Z,99919.25
2022-09-16T04:46:30.242Z,99924.59
2022-09-16T04:48:59.504Z,99928.75
2022-09-16T04:51:27.291Z,99915.59
2022-09-16T04:53:55.194Z,99920.94
2022-09-16T04:56:23.599Z,99918.59
2022-09-16T04:58:51.654Z,99923.94
2022-09-16T05:01:20.991Z,99921.28
2022-09-16T05:03:49.553Z,99912.44
2022-09-16T05:06:20.897Z,99915.75
2022-09-16T05:08:48.529Z,99915.75
2022-09-16T05:11:19.117Z,99915.94
2022-09-16T05:13:46.507Z,99915.94
2022-09-16T05:16:14.683Z,99915.59
2022-09-16T05:18:42.728Z,99922.91
2022-09-16T05:21:11.317Z,99910.56
2022-09-16T05:23:45.888Z,99918.44
2022-09-16T05:26:15.084Z,99922.75
2022-09-16T05:28:43.088Z,99921.75
2022-09-16T05:31:11.578Z,99927.09
2022-09-16T05:33:38.998Z,99921.03
2022-09-16T05:36:07.342Z,99921.00
2022-09-16T05:38:34.816Z,99914.19
2022-09-16T05:41:03.666Z,99921.00
2022-09-16T05:43:31.105Z,99922.53
2022-09-16T05:45:58.549Z,99922.22
2022-09-16T05:48:26.118Z,99920.56
2022-09-16T05:50:53.944Z,99927.59
2022-09-16T05:53:21.613Z,99929.91
2022-09-16T05:55:56.060Z,99929.25
2022-09-16T05:58:24.819Z,99925.06
2022-09-16T06:00:52.204Z,99926.59
2022-09-16T06:03:19.601Z,99928.22
2022-09-16T06:05:46.974Z,99931.38
2022-09-16T06:08:14.365Z,99927.06
2022-09-16T06:10:42.061Z,99924.88
2022-09-16T06:13:09.535Z,99921.34
2022-09-16T06:15:38.298Z,99916.84
2022-09-16T06:18:06.539Z,99912.03
2022-09-16T06:20:34.104Z,99913.16
2022-09-16T06:23:01.486Z,99911.84
2022-09-16T06:25:29.215Z,99911.19
2022-09-16T06:27:56.607Z,99910.19
2022-09-16T06:30:26.103Z,99917.84
2022-09-16T06:32:57.879Z,99927.53
2022-09-16T06:35:25.252Z,99929.03
2022-09-16T06:37:52.648Z,99934.53
2022-09-16T06:40:20.279Z,99922.03
2022-09-16T06:42:47.885Z,99917.34
2022-09-16T06:45:15.264Z,99922.84
2022-09-16T06:47:42.651Z,99922.84
2022-09-16T06:50:11.589Z,99919.34
2022-09-16T06:52:38.976Z,99921.19
2022-09-16T06:55:07.062Z,99925.53
2022-09-16T06:57:34.454Z,99920.50
2022-09-16T07:00:01.994Z,99921.66
2022-09-16T07:02:31.150Z,99920.66
2022-09-16T07:04:58.604Z,99929.03
2022-09-16T07:07:30.587Z,99923.19
2022-09-16T07:09:58.641Z,99929.19
2022-09-16T07:12:26.033Z,99932.72
2022-09-16T07:14:53.864Z,99926.53
2022-09-16T07:17:23.570Z,99940.75
2022-09-16T07:19:50.966Z,99933.53
2022-09-16T07:22:18.368Z,99935.22
2022-09-16T07:24:47.079Z,99925.69
2022-09-16T07:27:14.472Z,99935.56
2022-09-16T07:29:41.865Z,99941.41
2022-09-16T07:32:09.390Z,99933.19
2022-09-16T07:34:36.770Z,99933.19
2022-09-16T07:37:04.167Z,99931.69
2022-09-16T07:39:31.567Z,99934.53
2022-09-16T07:42:05.870Z,99934.72
2022-09-16T07:44:33.678Z,99930.88
2022-09-16T07:47:01.064Z,99937.91
2022-09-16T07:49:28.449Z,99930.19
2022-09-16T07:51:55.859Z,99933.69
2022-09-16T07:54:23.255Z,99932.19
2022-09-16T07:56:50.649Z,99937.53
2022-09-16T07:59:19.809Z,99936.53
2022-09-16T08:01:48.274Z,99939.84
2022-09-16T08:04:15.738Z,99937.53
2022-09-16T08:06:43.167Z,99935.53
2022-09-16T08:09:34.274Z,99942.69
2022-09-16T08:11:57.915Z,99939.84
2022-09-16T08:14:26.785Z,99942.53
2022-09-16T08:16:54.239Z,99947.06
2022-09-16T08:19:22.524Z,99942.53
2022-09-16T08:21:49.967Z,99942.34
2022-09-16T08:24:17.372Z,99941.41
2022-09-16T08:26:44.795Z,99945.38
2022-09-16T08:29:12.677Z,99947.41
2022-09-16T08:31:41.849Z,99938.56
2022-09-16T08:34:09.252Z,99942.06
2022-09-16T08:36:36.648Z,99941.88
2022-09-16T08:39:04.047Z,99942.06
2022-09-16T08:41:37.588Z,99940.19
2022-09-16T08:44:12.301Z,99943.03
2022-09-16T08:46:44.843Z,99938.56
2022-09-16T08:49:17.845Z,99939.38
2022-09-16T08:51:45.456Z,99927.31
2022-09-16T08:54:16.860Z,99929.81
2022-09-16T08:56:44.952Z,99931.66
2022-09-16T08:59:14.321Z,99928.84
2022-09-16T09:01:46.037Z,99939.03
2022-09-16T09:04:13.679Z,99926.50
2022-09-16T09:06:49.275Z,99927.31
2022-09-16T09:09:27.671Z,99929.81
2022-09-16T09:11:58.182Z,99927.44
2022-09-16T09:14:33.048Z,99929.13
2022-09-16T09:17:04.486Z,99920.25
2022-09-16T09:19:39.265Z,99934.28
2022-09-16T09:22:16.436Z,99919.72
2022-09-16T09:24:57.253Z,99928.09
2022-09-16T09:27:27.600Z,99916.06
2022-09-16T09:30:04.054Z,99907.72
2022-09-16T09:32:49.031Z,99911.41
2022-09-16T09:35:23.743Z,99906.53
2022-09-16T09:38:05.767Z,99911.06
2022-09-16T09:40:34.689Z,99911.56
2022-09-16T09:43:07.325Z,99902.56
2022-09-16T09:45:36.374Z,99902.22
2022-09-16T09:48:11.221Z,99913.72
2022-09-16T09:50:41.379Z,99895.84
2022-09-16T09:53:13.812Z,99894.00
2022-09-16T09:55:41.987Z,99901.31
2022-09-16T09:58:18.682Z,99910.34
2022-09-16T10:00:46.522Z,99892.00
2022-09-16T10:03:16.497Z,99895.47
2022-09-16T10:05:43.994Z,99890.25
2022-09-16T10:08:16.620Z,99887.59
2022-09-16T10:10:48.677Z,99882.88
2022-09-16T10:13:17.330Z,99884.19
2022-09-16T10:15:44.789Z,99881.91
2022-09-16T10:18:15.639Z,99870.00
2022-09-16T10:20:44.317Z,99878.84
2022-09-16T10:23:12.662Z,99880.88
2022-09-16T10:25:40.034Z,99885.75
2022-09-16T10:28:20.221Z,99879.91
2022-09-16T10:30:48.635Z,99886.94
2022-09-16T10:33:18.850Z,99886.56
2022-09-16T10:35:55.075Z,99881.22
2022-09-16T10:38:23.357Z,99882.72
2022-09-16T10:40:54.348Z,99884.19
2022-09-16T10:43:21.785Z,99881.72
2022-09-16T10:45:50.282Z,99878.75
2022-09-16T10:48:20.020Z,99875.56
2022-09-16T10:50:55.224Z,99887.28
2022-09-16T10:53:24.395Z,99888.94
2022-09-16T10:55:57.956Z,99885.91
2022-09-16T10:58:25.339Z,99880.03
2022-09-16T11:01:07.761Z,99881.50
2022-09-16T11:03:52.894Z,99879.22
2022-09-16T11:06:28.544Z,99874.34
2022-09-16T11:09:01.063Z,99877.19
2022-09-16T11:11:44.835Z,99879.22
2022-09-16T11:14:15.907Z,99878.00
2022-09-16T11:16:55.337Z,99868.03
2022-09-16T11:19:27.125Z,99872.91
2022-09-16T11:22:04.566Z,99876.59
2022-09-16T11:24:55.119Z,99869.56
2022-09-16T11:27:29.589Z,99867.66
2022-09-16T11:30:02.916Z,99860.13
2022-09-16T11:32:35.399Z,99853.41
2022-09-16T11:35:17.352Z,99860.22
2022-09-16T11:37:47.165Z,99856.75
2022-09-16T11:40:22.790Z,99854.41
2022-09-16T11:42:53.178Z,99853.41
2022-09-16T11:45:31.515Z,99853.72
2022-09-16T11:48:08.282Z,99845.69
2022-09-16T11:50:42.371Z,99849.91
2022-09-16T11:53:38.244Z,99846.56
2022-09-16T11:56:09.709Z,99849.63
2022-09-16T11:58:39.123Z,99847.72
2022-09-16T12:01:11.019Z,99846.34
2022-09-16T12:03:40.134Z,99833.59
2022-09-16T12:06:11.101Z,99833.78
2022-09-16T12:08:45.311Z,99833.25
2022-09-16T12:11:18.268Z,99815.34
2022-09-16T12:13:48.273Z,99824.88
2022-09-16T12:16:18.190Z,99818.19
2022-09-16T12:18:46.671Z,99823.94
2022-09-16T12:21:17.213Z,99824.47
2022-09-16T12:23:46.305Z,99828.31
2022-09-16T12:26:15.004Z,99818.94
2022-09-16T12:28:45.938Z,99825.47
2022-09-16T12:31:14.808Z,99811.63
2022-09-16T12:33:46.029Z,99805.75
2022-09-16T12:36:14.108Z,99817.56
2022-09-16T12:38:42.806Z,99807.78
2022-09-16T12:41:17.896Z,99791.72
2022-09-16T12:44:17.055Z,99803.28
2022-09-16T12:47:19.017Z,99799.47
2022-09-16T12:50:08.813Z,99787.41
2022-09-16T12:52:45.638Z,99792.88
2022-09-16T12:55:40.179Z,99802.19
2022-09-16T12:58:18.936Z,99788.81
2022-09-16T13:00:54.265Z,99786.13
2022-09-16T13:03:22.789Z,99786.03
2022-09-16T13:05:51.357Z,99787.59
2022-09-16T13:08:21.917Z,99792.66
2022-09-16T13:11:12.116Z,99791.84
2022-09-16T13:13:49.065Z,99784.91
2022-09-16T13:16:16.488Z,99782.88
2022-09-16T13:18:45.411Z,99784.38
2022-09-16T13:21:22.396Z,99776.53
2022-09-16T13:23:53.995Z,99781.72
2022-09-16T13:26:22.673Z,99777.28
2022-09-16T13:28:50.075Z,99767.41
2022-09-16T13:31:19.109Z,99771.56
2022-09-16T13:33:47.208Z,99768.69
2022-09-16T13:36:30.622Z,99752.63
2022-09-16T13:38:58.506Z,99768.69
2022-09-16T13:41:37.458Z,99753.56
2022-09-16T13:44:20.391Z,99755.50
2022-09-16T13:46:47.782Z,99747.06
2022-09-16T13:49:20.572Z,99741.91
2022-09-16T13:51:48.848Z,99745.97
2022-09-16T13:54:48.068Z,99742.97
2022-09-16T13:57:28.961Z,99742.09
2022-09-16T14:00:08.653Z,99755.28
2022-09-16T14:02:56.539Z,99751.34
2022-09-16T14:05:30.572Z,99749.63
2022-09-16T14:08:00.366Z,99741.09
2022-09-16T14:10:31.816Z,99752.50
2022-09-16T14:13:07.182Z,99763.06
2022-09-16T14:15:35.558Z,99748.59
2022-09-16T14:18:02.998Z,99760.59
2022-09-16T14:20:30.389Z,99746.69
2022-09-16T14:23:01.545Z,99749.00
2022-09-16T14:25:30.927Z,99734.94
2022-09-16T14:28:10.421Z,99731.34
2022-09-16T14:30:38.836Z,99739.06
2022-09-16T14:33:07.954Z,99737.84
2022-09-16T14:35:35.458Z,99732.00
2022-09-16T14:38:04.334Z,99733.28
2022-09-16T14:40:31.945Z,99743.59
2022-09-16T14:43:01.205Z,99736.69
2022-09-16T14:45:30.277Z,99727.91
2022-09-16T14:47:57.940Z,99729.13
2022-09-16T14:50:27.194Z,99731.34
2022-09-16T14:52:55.846Z,99730.41
2022-09-16T14:55:24.661Z,99742.06
2022-09-16T14:57:52.111Z,99735.16
2022-09-16T15:00:20.193Z,99735.34
2022-09-16T15:02:51.414Z,99729.00
2022-09-16T15:05:23.210Z,99719.72
2022-09-16T15:08:12.282Z,99722.81
2022-09-16T15:10:51.551Z,99713.09
2022-09-16T15:13:20.640Z,99711.00
2022-09-16T15:15:50.071Z,99713.66
2022-09-16T15:18:24.132Z,99706.78
2022-09-16T15:20:54.335Z,99708.44
2022-09-16T15:23:23.427Z,99706.31
2022-09-16T15:25:54.433Z,99711.50
2022-09-16T15:28:21.816Z,99709.91
2022-09-16T15:30:50.938Z,99709.44
2022-09-16T15:33:31.092Z,99713.63
2022-09-16T15:36:01.624Z,99707.06
2022-09-16T15:38:29.081Z,99709.91
2022-09-16T15:41:04.381Z,99717.59
2022-09-16T15:43:35.361Z,99715.19
2022-09-16T15:46:03.457Z,99709.31
2022-09-16T15:48:35.158Z,99709.13
2022-09-16T15:51:05.028Z,99721.75
2022-09-16T15:53:38.035Z,99710.84
2022-09-16T15:56:07.707Z,99719.16
2022-09-16T15:58:43.207Z,99704.13
2022-09-16T16:01:14.965Z,99710.38
2022-09-16T16:03:55.419Z,99710.19
2022-09-16T16:06:38.044Z,99709.06
2022-09-16T16:09:05.445Z,99704.06
2022-09-16T16:11:33.062Z,99700.75
2022-09-16T16:14:02.013Z,99699.94
2022-09-16T16:16:29.768Z,99689.88
2022-09-16T16:18:58.453Z,99699.56
2022-09-16T16:21:25.912Z,99700.88
2022-09-16T16:23:53.341Z,99695.91
2022-09-16T16:26:20.748Z,99692.97
2022-09-16T16:28:48.201Z,99703.66
2022-09-16T16:31:16.488Z,99697.28
2022-09-16T16:33:45.015Z,99697.84
2022-09-16T16:36:14.577Z,99697.56
2022-09-16T16:38:42.069Z,99694.56
2022-09-16T16:41:10.589Z,99698.28
2022-09-16T16:43:37.986Z,99693.50
2022-09-16T16:46:05.457Z,99698.59
2022-09-16T16:48:32.880Z,99706.97
2022-09-16T16:51:00.929Z,99705.66
2022-09-16T16:53:29.627Z,99705.84
2022-09-16T16:56:03.421Z,99706.22
2022-09-16T16:58:30.981Z,99702.88
2022-09-16T17:00:58.587Z,99706.59
2022-09-16T17:03:26.014Z,99708.25
2022-09-16T17:05:53.482Z,99697.75
2022-09-16T17:08:20.935Z,99702.06
2022-09-16T17:10:49.834Z,99700.59
2022-09-16T17:13:17.363Z,99704.19
2022-09-16T17:15:44.830Z,99706.59
2022-09-16T17:18:12.321Z,99710.28
2022-09-16T17:20:39.716Z,99712.13
2022-09-16T17:23:07.123Z,99717.66
2022-09-16T17:25:34.583Z,99714.97
2022-09-16T17:28:03.757Z,99723.00
2022-09-16T17:30:31.220Z,99726.69
2022-09-16T17:32:58.683Z,99724.00
2022-09-16T17:35:26.176Z,99722.53
2022-09-16T17:37:53.711Z,99728.72
2022-09-16T17:40:21.894Z,99727.16
2022-09-16T17:42:51.833Z,99721.88
2022-09-16T17:45:20.619Z,99725.59
2022-09-16T17:47:48.051Z,99723.38
2022-09-16T17:50:19.759Z,99726.88
2022-09-16T17:52:50.228Z,99730.94
2022-09-16T17:55:17.611Z,99726.97
2022-09-16T17:57:45.044Z,99732.53
2022-09-16T18:00:13.725Z,99730.31
2022-09-16T18:02:42.974Z,99728.34
2022-09-16T18:05:10.636Z,99728.34
2022-09-16T18:07:38.042Z,99733.22
2022-09-16T18:10:06.245Z,99733.41
2022-09-16T18:12:33.620Z,99725.38
2022-09-16T18:15:00.999Z,99723.72
2022-09-16T18:17:28.559Z,99723.53
2022-09-16T18:19:57.261Z,99715.91
2022-09-16T18:22:24.718Z,99727.06
2022-09-16T18:24:52.095Z,99721.72
2022-09-16T18:27:19.695Z,99719.41
2022-09-16T18:29:48.257Z,99718.75
2022-09-16T18:32:15.633Z,99725.38
2022-09-16T18:34:43.047Z,99718.75
2022-09-16T18:37:11.729Z,99719.94
2022-09-16T18:39:39.108Z,99721.44
2022-09-16T18:42:06.774Z,99721.59
2022-09-16T18:44:34.236Z,99727.97
2022-09-16T18:47:01.623Z,99724.00
2022-09-16T18:49:30.084Z,99724.19
2022-09-16T18:51:57.752Z,99722.50
2022-09-16T18:54:28.502Z,99718.38
2022-09-16T18:56:56.336Z,99724.72
2022-09-16T18:59:26.352Z,99724.88
2022-09-16T19:01:54.542Z,99725.06
2022-09-16T19:04:23.106Z,99726.56
2022-09-16T19:06:51.472Z,99723.88
2022-09-16T19:09:20.675Z,99720.56
2022-09-16T19:11:49.491Z,99705.72
2022-09-16T19:14:17.429Z,99712.72
2022-09-16T19:16:45.489Z,99707.38
2022-09-16T19:19:13.653Z,99707.38
2022-09-16T19:21:41.213Z,99705.53
2022-09-16T19:24:10.642Z,99709.22
2022-09-16T19:26:38.166Z,99703.38
2022-09-16T19:29:07.047Z,99707.91
2022-09-16T19:31:35.729Z,99708.56
2022-09-16T19:34:03.117Z,99706.91
2022-09-16T19:36:31.516Z,99713.09
2022-09-16T19:38:59.086Z,99706.28
2022-09-16T19:41:27.740Z,99721.28
2022-09-16T19:43:55.420Z,99703.78
2022-09-16T19:46:24.377Z,99712.63
2022-09-16T19:48:52.106Z,99714.28
2022-09-16T19:51:20.546Z,99705.59
2022-09-16T19:53:49.268Z,99709.75
2022-09-16T19:56:17.773Z,99701.09
2022-09-16T19:58:45.690Z,99705.59
2022-09-16T20:01:13.908Z,99709.13
2022-09-16T20:03:43.764Z,99714.00
2022-09-16T20:06:11.874Z,99713.78
2022-09-16T20:08:41.344Z,99718.31
2022-09-16T20:11:09.491Z,99709.66
2022-09-16T20:13:36.872Z,99712.31
2022-09-16T20:16:05.829Z,99722.84
2022-09-16T20:18:33.476Z,99725.69
2022-09-16T20:21:03.226Z,99718.63
2022-09-16T20:23:30.623Z,99714.50
2022-09-16T20:25:58.031Z,99700.09
2022-09-16T20:28:25.479Z,99691.09
2022-09-16T20:30:53.036Z,99687.78
2022-09-16T20:33:20.430Z,99683.25
2022-09-16T20:35:47.832Z,99671.91
2022-09-16T20:38:16.487Z,99667.22
2022-09-16T20:40:44.673Z,99676.06
2022-09-16T20:43:12.339Z,99666.38
2022-09-16T20:45:39.794Z,99670.91
2022-09-16T20:48:07.303Z,99652.38
2022-09-16T20:50:37.000Z,99664.72
2022-09-16T20:53:04.409Z,99659.38
2022-09-16T20:55:33.144Z,99661.41
2022-09-16T20:58:00.533Z,99657.91
2022-09-16T21:00:28.100Z,99656.88
2022-09-16T21:02:55.646Z,99656.06
2022-09-16T21:05:23.053Z,99652.19
2022-09-16T21:07:50.720Z,99655.06
2022-09-16T21:10:19.379Z,99642.03
2022-09-16T21:12:48.641Z,99641.88
2022-09-16T21:15:16.214Z,99637.53
2022-09-16T21:17:43.586Z,99649.03
2022-09-16T21:20:11.112Z,99648.22
2022-09-16T21:22:38.824Z,99648.22
2022-09-16T21:25:06.850Z,99644.91
2022-09-16T21:27:34.278Z,99645.34
2022-09-16T21:30:03.595Z,99641.41
2022-09-16T21:32:31.841Z,99636.22
2022-09-16T21:34:59.400Z,99638.06
2022-09-16T21:37:26.781Z,99641.59
2022-09-16T21:39:54.182Z,99637.06
2022-09-16T21:42:21.569Z,99642.56
2022-09-16T21:44:48.954Z,99638.06
2022-09-16T21:47:17.619Z,99637.88
2022-09-16T21:49:45.000Z,99649.59
2022-09-16T21:52:12.452Z,99640.72
2022-09-16T21:54:39.837Z,99646.28
2022-09-16T21:57:07.228Z,99649.31
2022-09-16T21:59:34.623Z,99659.81
2022-09-16T22:02:03.934Z,99650.94
2022-09-16T22:04:32.811Z,99652.97
2022-09-16T22:07:00.180Z,99652.81
2022-09-16T22:09:27.605Z,99657.31
2022-09-16T22:11:55.032Z,99652.97
2022-09-16T22:14:22.444Z,99654.66
2022-09-16T22:16:49.828Z,99652.81
2022-09-16T22:19:18.418Z,99651.97
2022-09-16T22:21:48.903Z,99654.66
2022-09-16T22:24:19.822Z,99648.66
2022-09-16T22:26:47.207Z,99652.97
2022-09-16T22:29:14.602Z,99653.81
2022-09-16T22:31:42.199Z,99664.50
2022-09-16T22:34:09.679Z,99662.03
2022-09-16T22:36:37.483Z,99657.69
2022-09-16T22:39:07.246Z,99655.00
2022-09-16T22:41:34.721Z,99658.69
2022-09-16T22:44:02.419Z,99651.69
2022-09-16T22:46:30.891Z,99658.69
2022-09-16T22:48:59.114Z,99659.53
2022-09-16T22:51:26.826Z,99658.69
2022-09-16T22:53:54.249Z,99652.50
2022-09-16T22:56:24.768Z,99662.38
2022-09-16T22:58:52.621Z,99664.41
2022-09-16T23:01:21.260Z,99665.22
2022-09-16T23:03:52.527Z,99678.41
2022-09-16T23:06:19.946Z,99673.25
2022-09-16T23:08:47.425Z,99671.75
2022-09-16T23:11:16.226Z,99666.22
2022-09-16T23:13:45.189Z,99672.59
2022-09-16T23:16:15.017Z,99659.88
2022-09-16T23:18:42.851Z,99663.56
2022-09-16T23:21:11.391Z,99662.72
2022-09-16T23:23:39.953Z,99674.41
2022-09-16T23:26:09.695Z,99670.09
2022-09-16T23:28:37.110Z,99659.41
2022-09-16T23:31:06.720Z,99669.28
2022-09-16T23:33:34.190Z,99665.59
2022-09-16T23:36:01.638Z,99682.81
2022-09-16T23:38:29.184Z,99679.13
2022-09-16T23:40:56.566Z,99677.28
2022-09-16T23:43:25.074Z,99685.50
2022-09-16T23:45:52.776Z,99680.78
2022-09-16T23:48:21.444Z,99689.16
2022-09-16T23:50:48.817Z,99686.94
2022-09-16T23:53:16.549Z,99683.81
2022-09-16T23:55:44.071Z,99691.66
2022-09-16T23:58:11.499Z,99696.00
